Flight Track Log - Related Links

Times and Time Zones

All times are in EDT time to prevent confusion due to time zone crossing. See the SWA1017 flight status page for this flight to view local times or setup timezone preferences in your user account.


Time Position Orientation Groundspeed Altitude Reporting Facility
EDT Latitude Longitude Course Direction KTS MPH feet Rate Location/Type
Mon 02:58:29 PM 26.2200 -97.6519 37° Northeast 142 163 700  Level Houston Center
Mon 02:59:51 PM 26.2717 -97.6092 37° Northeast 217 250 5,400 3,333 Climbing Houston Center
Mon 03:00:53 PM 26.3433 -97.6033 North 265 305 8,700 3,290 Climbing Houston Center
Mon 03:01:55 PM 26.4372 -97.5936 North 318 366 12,200 3,726 Climbing Houston Center
Mon 03:02:57 PM 26.5336 -97.5839 North 345 397 16,400 3,726 Climbing Houston Center
Mon 03:03:59 PM 26.6422 -97.5733 North 389 448 19,900 3,242 Climbing Houston Center
Mon 03:05:01 PM 26.7475 -97.5614 North 380 437 23,100 2,903 Climbing Houston Center
Mon 03:06:03 PM 26.8619 -97.5514 North 396 456 25,900 2,832 Climbing Houston Center
Mon 03:07:06 PM 26.9772 -97.5425 North 383 441 29,000 1,488 Climbing Houston Center
Mon 03:08:08 PM 27.0911 -97.5481 358° North 380 437 29,000  Level Houston Center
Mon 03:09:10 PM 27.1819 -97.5525 358° North 373 429 29,000  Level Houston Center
Mon 03:10:12 PM 27.3072 -97.5564 358° North 376 433 29,000  Level Houston Center
Mon 03:11:14 PM 27.4144 -97.5617 357° North 384 442 29,000  Level Houston Center
Mon 03:12:16 PM 27.5206 -97.5653 358° North 383 441 29,000  Level Houston Center
Mon 03:13:18 PM 27.6256 -97.5694 358° North 381 438 29,000 -48 Level Houston Center
Mon 03:14:21 PM 27.7322 -97.5742 358° North 385 443 28,900 -384 Descending Houston Center
Mon 03:15:23 PM 27.8572 -97.5792 358° North 377 434 28,200 -823 Descending Houston Center
Mon 03:16:25 PM 27.9567 -97.5828 358° North 374 430 27,200 -968 Descending Houston Center
Mon 03:17:27 PM 28.0628 -97.5886 357° North 379 436 26,200 -968 Descending Houston Center
Mon 03:18:29 PM 28.1678 -97.5931 358° North 378 435 25,200 -968 Descending Houston Center
Mon 03:19:31 PM 28.2706 -97.5967 358° North 372 428 24,200 -581 Descending Houston Center
Mon 03:20:33 PM 28.3922 -97.6025 358° North 366 421 24,000 -97 Descending Houston Center
Mon 03:21:35 PM 28.4917 -97.6061 358° North 360 414 24,000  Level Houston Center
Mon 03:22:38 PM 28.5908 -97.6094 358° North 357 411 24,000  Level Houston Center
Mon 03:23:40 PM 28.6906 -97.6133 358° North 358 412 24,000  Level Houston Center
Mon 03:24:42 PM 28.7914 -97.6183 358° North 360 414 24,000  Level Houston Center
Mon 03:25:44 PM 28.8928 -97.6219 358° North 362 417 24,000  Level Houston Center
Mon 03:26:46 PM 29.0144 -97.6264 358° North 362 417 24,000 -774 Level Houston Center
Mon 03:27:48 PM 29.1144 -97.6303 358° North 361 415 22,400 -1,742 Descending Houston Center
Mon 03:28:50 PM 29.2094 -97.6339 358° North 349 402 20,400 -1,935 Descending Houston Center
Mon 03:29:52 PM 29.3042 -97.6367 359° North 341 392 18,400 -1,872 Descending Houston Center
Mon 03:30:55 PM 29.3964 -97.6406 358° North 333 383 16,500 -1,872 Descending Houston Center
Mon 03:31:57 PM 29.4856 -97.6428 359° North 321 369 14,500 -2,081 Descending Houston Center
Mon 03:32:59 PM 29.5919 -97.6481 358° North 318 366 12,200 -1,500 Descending Houston Center
Mon 03:34:01 PM 29.6783 -97.6508 358° North 313 360 11,400 -871 Descending Houston Center
Mon 03:35:03 PM 29.7661 -97.6539 358° North 313 360 10,400 -1,016 Descending Houston Center
Mon 03:36:05 PM 29.8547 -97.6239 16° North 293 337 9,300 -1,016 Descending Houston Center
Mon 03:37:07 PM 29.9347 -97.5956 17° North 299 344 8,300 -624 Descending Houston Center
Mon 03:38:10 PM 30.0133 -97.5661 18° North 296 341 8,000 -768 Descending Houston Center
Mon 03:39:12 PM 30.0847 -97.5611 North 292 336 6,700 -968 Descending Houston Center
Mon 03:40:14 PM 30.1806 -97.5633 359° North 292 336 6,000 -823 Descending Houston Center
Mon 03:41:16 PM 30.2278 -97.5703 353° North 217 250 5,000 -1,161 Descending Houston Center
Mon 03:42:18 PM 30.2697 -97.5903 338° Northwest 184 212 3,600 -1,161 Descending Houston Center
Mon 03:43:20 PM 30.2683 -97.6533 269° West 175 201 2,600 -968 Descending Houston Center
Mon 03:45:00 PM 30.1945 -97.6699 191° South  Level Estimated

Login

Don't have an account? Register now (free) for customized features, flight alerts, and more!